Airfield :
LOGIN :

Register | Disclaimer

   EN    FR    IT 

 










Legend :    VFR   Marginal VFR   IFR   Intensive IFR   Very Intensive IFR
Visi :
Ceiling :
>= 8 km
>= 3000ft
5 to 8 km
1000 to 3000 ft
1500m to 5 km
500 to 1000 ft
800 to 1500m
200 to 500 ft
< 800m
< 200 ft
Symbols :   Thunderstorms  Fog  Heavy snow  Heavy precipitations  Wind > 20 kt
SIGMETs :     Misc.  Thunderstorms  Icing  Turbulence  Mountain Waves  Volcanic Ashes






- Airport Elevation : 146 ft
- IATA code : RKE


EKRK - Roskilde Tune

CURRENT METAR :
  • 311920Z AUTO 15009KT 3700 BR OVC002/// 12/12 Q1015

EXPIRED METARs :
  • 311850Z AUTO 14010KT 2400 +DZ OVC002/// 12/11 Q1015
  • 311820Z AUTO 15008KT 4000 BR OVC002/// 11/11 Q1016
  • 311750Z AUTO 14008KT 5000 -RA OVC003/// 11/11 Q1016
  • 311720Z AUTO 14006KT 4400 DZ FEW006/// BKN017/// 11/11 Q1017
  • 311650Z AUTO 14005KT 9999 BKN037/// 11/10 Q1017

TAF TAF EKRK
Valid from the 31 at 18:00 until the 01 at 03:00 UTC


311720Z 3118/0103 14012KT 9000 BKN020
TEMPO 3118/0103 2000 RADZ BKN004



MET'MAP, your aeronautical weather chart ! - Copyright ORBIFLY December 2007 - Disclaimer

ORBIFLY MET'MAP TEAM :

Programming & Development : Alexandra Zaïnal
Concept & original design : Baudouin d'Aumeries
Assistance for programming : Marc-Olivier Méhu
Technical & hardware support : Manuel Goepfert

Contact : metmap@orbifly.com




SOURCES & CREDITS :

   NOAA